sensor_id;sensor_type;location;lat;lon;timestamp;pressure;altitude;pressure_sealevel;temperature
50206;BMP280;36098;48.390;10.856;2022-11-23T00:00:44;94789.44;;;21.87
50206;BMP280;36098;48.390;10.856;2022-11-23T00:03:14;94784.16;;;21.87
50206;BMP280;36098;48.390;10.856;2022-11-23T00:05:39;94786.81;;;21.87
50206;BMP280;36098;48.390;10.856;2022-11-23T00:08:05;94785.81;;;21.83
50206;BMP280;36098;48.390;10.856;2022-11-23T00:10:30;94792.63;;;21.84
50206;BMP280;36098;48.390;10.856;2022-11-23T00:12:55;94784.56;;;21.81
50206;BMP280;36098;48.390;10.856;2022-11-23T00:15:21;94796.66;;;21.82
50206;BMP280;36098;48.390;10.856;2022-11-23T00:17:47;94796.34;;;21.83
50206;BMP280;36098;48.390;10.856;2022-11-23T00:20:12;94792.94;;;21.83
50206;BMP280;36098;48.390;10.856;2022-11-23T00:22:37;94789.84;;;21.81
50206;BMP280;36098;48.390;10.856;2022-11-23T00:25:03;94795.84;;;21.81
50206;BMP280;36098;48.390;10.856;2022-11-23T00:27:28;94791.94;;;21.79
50206;BMP280;36098;48.390;10.856;2022-11-23T00:29:53;94796.44;;;21.78
50206;BMP280;36098;48.390;10.856;2022-11-23T00:32:19;94792.75;;;21.79
50206;BMP280;36098;48.390;10.856;2022-11-23T00:34:44;94801.41;;;21.80
50206;BMP280;36098;48.390;10.856;2022-11-23T00:37:09;94797.78;;;21.76
50206;BMP280;36098;48.390;10.856;2022-11-23T00:39:34;94796.81;;;21.72
50206;BMP280;36098;48.390;10.856;2022-11-23T00:42:00;94798.69;;;21.71
50206;BMP280;36098;48.390;10.856;2022-11-23T00:44:25;94797.88;;;21.71
50206;BMP280;36098;48.390;10.856;2022-11-23T00:46:50;94793.97;;;21.68
50206;BMP280;36098;48.390;10.856;2022-11-23T00:49:16;94793.69;;;21.70
50206;BMP280;36098;48.390;10.856;2022-11-23T00:51:41;94792.91;;;21.69
50206;BMP280;36098;48.390;10.856;2022-11-23T00:54:06;94800.31;;;21.67
50206;BMP280;36098;48.390;10.856;2022-11-23T00:56:34;94793.78;;;21.65
50206;BMP280;36098;48.390;10.856;2022-11-23T00:59:00;94795.94;;;21.63
50206;BMP280;36098;48.390;10.856;2022-11-23T01:01:28;94804.88;;;21.62
50206;BMP280;36098;48.390;10.856;2022-11-23T01:03:56;94803.03;;;21.62
50206;BMP280;36098;48.390;10.856;2022-11-23T01:06:31;94794.38;;;21.62
50206;BMP280;36098;48.390;10.856;2022-11-23T01:09:00;94795.69;;;21.59
50206;BMP280;36098;48.390;10.856;2022-11-23T01:11:28;94800.66;;;21.61
50206;BMP280;36098;48.390;10.856;2022-11-23T01:13:54;94798.31;;;21.59
50206;BMP280;36098;48.390;10.856;2022-11-23T01:16:30;94794.91;;;21.59
50206;BMP280;36098;48.390;10.856;2022-11-23T01:18:58;94794.41;;;21.57
50206;BMP280;36098;48.390;10.856;2022-11-23T01:21:25;94800.75;;;21.56
50206;BMP280;36098;48.390;10.856;2022-11-23T01:23:50;94796.56;;;21.55
50206;BMP280;36098;48.390;10.856;2022-11-23T01:26:16;94804.75;;;21.53
50206;BMP280;36098;48.390;10.856;2022-11-23T01:28:42;94798.19;;;21.51
50206;BMP280;36098;48.390;10.856;2022-11-23T01:31:16;94798.69;;;21.53
50206;BMP280;36098;48.390;10.856;2022-11-23T01:33:41;94790.81;;;21.53
50206;BMP280;36098;48.390;10.856;2022-11-23T01:36:19;94800.34;;;21.49
50206;BMP280;36098;48.390;10.856;2022-11-23T01:38:46;94798.78;;;21.48
50206;BMP280;36098;48.390;10.856;2022-11-23T01:41:18;94800.34;;;21.49
50206;BMP280;36098;48.390;10.856;2022-11-23T01:43:44;94803.53;;;21.46
50206;BMP280;36098;48.390;10.856;2022-11-23T01:46:09;94803.53;;;21.46
50206;BMP280;36098;48.390;10.856;2022-11-23T01:48:45;94804.31;;;21.46
50206;BMP280;36098;48.390;10.856;2022-11-23T01:51:14;94812.97;;;21.47
50206;BMP280;36098;48.390;10.856;2022-11-23T01:53:41;94815.13;;;21.45
50206;BMP280;36098;48.390;10.856;2022-11-23T01:56:09;94808.31;;;21.44
50206;BMP280;36098;48.390;10.856;2022-11-23T01:58:41;94818.59;;;21.40
50206;BMP280;36098;48.390;10.856;2022-11-23T02:01:07;94809.38;;;21.43
50206;BMP280;36098;48.390;10.856;2022-11-23T02:03:35;94806.25;;;21.41
50206;BMP280;36098;48.390;10.856;2022-11-23T02:06:03;94811.53;;;21.41
50206;BMP280;36098;48.390;10.856;2022-11-23T02:08:30;94817.81;;;21.40
50206;BMP280;36098;48.390;10.856;2022-11-23T02:10:56;94820.44;;;21.40
50206;BMP280;36098;48.390;10.856;2022-11-23T02:13:22;94818.59;;;21.40
50206;BMP280;36098;48.390;10.856;2022-11-23T02:15:49;94815.19;;;21.40
50206;BMP280;36098;48.390;10.856;2022-11-23T02:18:19;94820.44;;;21.40
50206;BMP280;36098;48.390;10.856;2022-11-23T02:20:45;94822.28;;;21.39
50206;BMP280;36098;48.390;10.856;2022-11-23T02:26:14;94824.22;;;21.34
50206;BMP280;36098;48.390;10.856;2022-11-23T02:28:51;94823.16;;;21.35
50206;BMP280;36098;48.390;10.856;2022-11-23T02:31:18;94820.03;;;21.33
50206;BMP280;36098;48.390;10.856;2022-11-23T02:33:43;94823.16;;;21.35
50206;BMP280;36098;48.390;10.856;2022-11-23T02:38:46;94825.88;;;21.30
50206;BMP280;36098;48.390;10.856;2022-11-23T02:41:11;94820.59;;;21.30
50206;BMP280;36098;48.390;10.856;2022-11-23T02:43:37;94831.13;;;21.30
50206;BMP280;36098;48.390;10.856;2022-11-23T02:46:03;94825.38;;;21.28
50206;BMP280;36098;48.390;10.856;2022-11-23T02:48:28;94826.44;;;21.27
50206;BMP280;36098;48.390;10.856;2022-11-23T02:50:54;94821.94;;;21.28
50206;BMP280;36098;48.390;10.856;2022-11-23T02:53:19;94828.56;;;21.25
50206;BMP280;36098;48.390;10.856;2022-11-23T02:55:44;94823.31;;;21.25
50206;BMP280;36098;48.390;10.856;2022-11-23T02:58:10;94818.66;;;21.22
50206;BMP280;36098;48.390;10.856;2022-11-23T03:00:35;94823.91;;;21.22
50206;BMP280;36098;48.390;10.856;2022-11-23T03:03:01;94825.47;;;21.23
50206;BMP280;36098;48.390;10.856;2022-11-23T03:05:27;94830.97;;;21.22
50206;BMP280;36098;48.390;10.856;2022-11-23T03:07:52;94828.34;;;21.22
50206;BMP280;36098;48.390;10.856;2022-11-23T03:10:19;94830.00;;;21.18
50206;BMP280;36098;48.390;10.856;2022-11-23T03:12:44;94824.44;;;21.19
50206;BMP280;36098;48.390;10.856;2022-11-23T03:15:10;94830.50;;;21.20
50206;BMP280;36098;48.390;10.856;2022-11-23T03:17:35;94821.31;;;21.17
50206;BMP280;36098;48.390;10.856;2022-11-23T03:20:00;94821.31;;;21.17
50206;BMP280;36098;48.390;10.856;2022-11-23T03:22:26;94820.25;;;21.18
50206;BMP280;36098;48.390;10.856;2022-11-23T03:24:51;94828.13;;;21.18
50206;BMP280;36098;48.390;10.856;2022-11-23T03:27:16;94825.81;;;21.17
50206;BMP280;36098;48.390;10.856;2022-11-23T03:29:42;94827.94;;;21.15
50206;BMP280;36098;48.390;10.856;2022-11-23T03:32:07;94824.84;;;21.13
50206;BMP280;36098;48.390;10.856;2022-11-23T03:34:32;94811.41;;;21.14
50206;BMP280;36098;48.390;10.856;2022-11-23T03:36:58;94820.84;;;21.15
50206;BMP280;36098;48.390;10.856;2022-11-23T03:39:23;94819.59;;;21.13
50206;BMP280;36098;48.390;10.856;2022-11-23T03:41:48;94817.22;;;21.11
50206;BMP280;36098;48.390;10.856;2022-11-23T03:44:14;94819.38;;;21.09
50206;BMP280;36098;48.390;10.856;2022-11-23T03:46:39;94816.75;;;21.09
50206;BMP280;36098;48.390;10.856;2022-11-23T03:49:04;94814.88;;;21.10
50206;BMP280;36098;48.390;10.856;2022-11-23T03:51:30;94808.88;;;21.09
50206;BMP280;36098;48.390;10.856;2022-11-23T03:53:55;94809.94;;;21.08
50206;BMP280;36098;48.390;10.856;2022-11-23T03:56:20;94809.94;;;21.08
50206;BMP280;36098;48.390;10.856;2022-11-23T03:58:45;94810.41;;;21.10
50206;BMP280;36098;48.390;10.856;2022-11-23T04:01:11;94805.44;;;21.09
50206;BMP280;36098;48.390;10.856;2022-11-23T04:03:36;94807.31;;;21.08
50206;BMP280;36098;48.390;10.856;2022-11-23T04:06:02;94802.06;;;21.08
50206;BMP280;36098;48.390;10.856;2022-11-23T04:08:27;94799.72;;;21.07
50206;BMP280;36098;48.390;10.856;2022-11-23T04:10:55;94794.53;;;21.02
50206;BMP280;36098;48.390;10.856;2022-11-23T04:13:22;94802.13;;;21.03
50206;BMP280;36098;48.390;10.856;2022-11-23T04:15:47;94801.63;;;21.01
50206;BMP280;36098;48.390;10.856;2022-11-23T04:18:12;94794.06;;;21.00
50206;BMP280;36098;48.390;10.856;2022-11-23T04:20:38;94797.75;;;20.99
50206;BMP280;36098;48.390;10.856;2022-11-23T04:23:03;94797.44;;;21.00
50206;BMP280;36098;48.390;10.856;2022-11-23T04:25:28;94795.38;;;20.97
50206;BMP280;36098;48.390;10.856;2022-11-23T04:27:53;94796.69;;;21.00
50206;BMP280;36098;48.390;10.856;2022-11-23T04:30:19;94801.22;;;20.94
50206;BMP280;36098;48.390;10.856;2022-11-23T04:32:44;94789.16;;;20.93
50206;BMP280;36098;48.390;10.856;2022-11-23T04:35:10;94795.38;;;20.97
50206;BMP280;36098;48.390;10.856;2022-11-23T04:37:35;94793.84;;;20.96
50206;BMP280;36098;48.390;10.856;2022-11-23T04:40:00;94798.88;;;20.93
50206;BMP280;36098;48.390;10.856;2022-11-23T04:42:26;94797.03;;;20.93
50206;BMP280;36098;48.390;10.856;2022-11-23T04:44:51;94807.81;;;20.92
50206;BMP280;36098;48.390;10.856;2022-11-23T04:47:16;94800.22;;;20.90
50206;BMP280;36098;48.390;10.856;2022-11-23T04:49:41;94811.28;;;20.87
50206;BMP280;36098;48.390;10.856;2022-11-23T04:52:07;94807.59;;;20.88
50206;BMP280;36098;48.390;10.856;2022-11-23T04:54:32;94796.53;;;20.91
50206;BMP280;36098;48.390;10.856;2022-11-23T04:56:58;94799.66;;;20.93
50206;BMP280;36098;48.390;10.856;2022-11-23T04:59:23;94806.81;;;20.88
50206;BMP280;36098;48.390;10.856;2022-11-23T05:01:49;94803.41;;;20.87
50206;BMP280;36098;48.390;10.856;2022-11-23T05:04:17;94789.50;;;20.87
50206;BMP280;36098;48.390;10.856;2022-11-23T05:06:42;94788.75;;;20.86
50206;BMP280;36098;48.390;10.856;2022-11-23T05:09:07;94798.75;;;20.84
50206;BMP280;36098;48.390;10.856;2022-11-23T05:11:33;94781.94;;;20.85
50206;BMP280;36098;48.390;10.856;2022-11-23T05:13:58;94792.97;;;20.82
50206;BMP280;36098;48.390;10.856;2022-11-23T05:16:23;94787.50;;;20.79
50206;BMP280;36098;48.390;10.856;2022-11-23T05:18:49;94796.63;;;20.81
50206;BMP280;36098;48.390;10.856;2022-11-23T05:21:14;94788.28;;;20.79
50206;BMP280;36098;48.390;10.856;2022-11-23T05:23:39;94795.09;;;20.80
50206;BMP280;36098;48.390;10.856;2022-11-23T05:26:04;94787.50;;;20.79
50206;BMP280;36098;48.390;10.856;2022-11-23T05:28:30;94786.78;;;20.73
50206;BMP280;36098;48.390;10.856;2022-11-23T05:30:55;94785.31;;;20.67
50206;BMP280;36098;48.390;10.856;2022-11-23T05:33:20;94781.13;;;20.66
50206;BMP280;36098;48.390;10.856;2022-11-23T05:35:46;94785.31;;;20.67
50206;BMP280;36098;48.390;10.856;2022-11-23T05:38:11;94793.09;;;20.72
50206;BMP280;36098;48.390;10.856;2022-11-23T05:40:36;94782.88;;;20.71
50206;BMP280;36098;48.390;10.856;2022-11-23T05:43:02;94790.22;;;20.74
50206;BMP280;36098;48.390;10.856;2022-11-23T05:45:27;94787.38;;;20.70
50206;BMP280;36098;48.390;10.856;2022-11-23T05:47:55;94786.66;;;20.65
50206;BMP280;36098;48.390;10.856;2022-11-23T05:50:21;94788.03;;;20.62
50206;BMP280;36098;48.390;10.856;2022-11-23T05:52:47;94787.00;;;20.58
50206;BMP280;36098;48.390;10.856;2022-11-23T05:55:13;94788.56;;;20.59
50206;BMP280;36098;48.390;10.856;2022-11-23T05:57:38;94784.59;;;20.43
50206;BMP280;36098;48.390;10.856;2022-11-23T06:00:04;94782.97;;;20.47
50206;BMP280;36098;48.390;10.856;2022-11-23T06:02:30;94781.41;;;20.46
50206;BMP280;36098;48.390;10.856;2022-11-23T06:04:55;94786.50;;;20.56
50206;BMP280;36098;48.390;10.856;2022-11-23T06:07:21;94780.19;;;20.57
50206;BMP280;36098;48.390;10.856;2022-11-23T06:09:46;94780.69;;;20.59
50206;BMP280;36098;48.390;10.856;2022-11-23T06:12:11;94784.97;;;20.74
50206;BMP280;36098;48.390;10.856;2022-11-23T06:14:36;94794.81;;;20.63
50206;BMP280;36098;48.390;10.856;2022-11-23T06:17:02;94790.22;;;20.74
50206;BMP280;36098;48.390;10.856;2022-11-23T06:19:27;94778.53;;;20.85
50206;BMP280;36098;48.390;10.856;2022-11-23T06:21:55;94779.25;;;20.90
50206;BMP280;36098;48.390;10.856;2022-11-23T06:24:20;94788.31;;;20.98
50206;BMP280;36098;48.390;10.856;2022-11-23T06:26:45;94786.88;;;21.05
50206;BMP280;36098;48.390;10.856;2022-11-23T06:29:10;94783.78;;;21.03
50206;BMP280;36098;48.390;10.856;2022-11-23T06:31:36;94776.38;;;21.05
50206;BMP280;36098;48.390;10.856;2022-11-23T06:34:01;94783.06;;;20.98
50206;BMP280;36098;48.390;10.856;2022-11-23T06:36:26;94781.94;;;20.85
50206;BMP280;36098;48.390;10.856;2022-11-23T06:38:52;94786.22;;;20.76
50206;BMP280;36098;48.390;10.856;2022-11-23T06:41:18;94792.97;;;20.64
50206;BMP280;36098;48.390;10.856;2022-11-23T06:43:45;94785.09;;;20.64
50206;BMP280;36098;48.390;10.856;2022-11-23T06:46:11;94794.22;;;20.48
50206;BMP280;36098;48.390;10.856;2022-11-23T06:48:36;94799.69;;;20.51
50206;BMP280;36098;48.390;10.856;2022-11-23T06:51:01;94794.66;;;20.73
50206;BMP280;36098;48.390;10.856;2022-11-23T06:53:29;94806.66;;;20.61
50206;BMP280;36098;48.390;10.856;2022-11-23T06:56:00;94807.84;;;20.68
50206;BMP280;36098;48.390;10.856;2022-11-23T06:58:26;94813.75;;;20.79
50206;BMP280;36098;48.390;10.856;2022-11-23T07:00:52;94820.22;;;20.86
50206;BMP280;36098;48.390;10.856;2022-11-23T07:03:22;94821.03;;;20.82
50206;BMP280;36098;48.390;10.856;2022-11-23T07:05:48;94819.06;;;20.74
50206;BMP280;36098;48.390;10.856;2022-11-23T07:08:14;94819.34;;;20.72
50206;BMP280;36098;48.390;10.856;2022-11-23T07:10:39;94819.84;;;20.74
50206;BMP280;36098;48.390;10.856;2022-11-23T07:13:06;94820.31;;;20.76
50206;BMP280;36098;48.390;10.856;2022-11-23T07:15:32;94823.25;;;20.75
50206;BMP280;36098;48.390;10.856;2022-11-23T07:17:57;94824.22;;;20.60
50206;BMP280;36098;48.390;10.856;2022-11-23T07:20:23;94835.84;;;20.54
50206;BMP280;36098;48.390;10.856;2022-11-23T07:22:58;94837.22;;;20.47
50206;BMP280;36098;48.390;10.856;2022-11-23T07:25:24;94833.34;;;20.44
50206;BMP280;36098;48.390;10.856;2022-11-23T07:27:54;94835.41;;;20.47
50206;BMP280;36098;48.390;10.856;2022-11-23T07:30:20;94839.59;;;20.48
50206;BMP280;36098;48.390;10.856;2022-11-23T07:32:45;94847.22;;;20.45
50206;BMP280;36098;48.390;10.856;2022-11-23T07:35:10;94839.44;;;20.58
50206;BMP280;36098;48.390;10.856;2022-11-23T07:37:36;94848.59;;;20.61
50206;BMP280;36098;48.390;10.856;2022-11-23T07:40:02;94854.50;;;20.71
50206;BMP280;36098;48.390;10.856;2022-11-23T07:42:27;94848.13;;;20.59
50206;BMP280;36098;48.390;10.856;2022-11-23T07:44:53;94860.78;;;20.52
50206;BMP280;36098;48.390;10.856;2022-11-23T07:47:18;94860.78;;;20.52
50206;BMP280;36098;48.390;10.856;2022-11-23T07:49:43;94852.28;;;20.60
50206;BMP280;36098;48.390;10.856;2022-11-23T07:52:08;94855.06;;;20.68
50206;BMP280;36098;48.390;10.856;2022-11-23T07:54:34;94853.28;;;20.64
50206;BMP280;36098;48.390;10.856;2022-11-23T07:56:59;94853.28;;;20.64
50206;BMP280;36098;48.390;10.856;2022-11-23T07:59:25;94857.75;;;20.63
50206;BMP280;36098;48.390;10.856;2022-11-23T08:01:50;94859.38;;;20.59
50206;BMP280;36098;48.390;10.856;2022-11-23T08:04:15;94854.91;;;20.60
50206;BMP280;36098;48.390;10.856;2022-11-23T08:06:40;94862.06;;;20.54
50206;BMP280;36098;48.390;10.856;2022-11-23T08:09:06;94851.06;;;20.52
50206;BMP280;36098;48.390;10.856;2022-11-23T08:11:31;94851.50;;;20.59
50206;BMP280;36098;48.390;10.856;2022-11-23T08:13:56;94850.44;;;20.60
50206;BMP280;36098;48.390;10.856;2022-11-23T08:16:21;94850.72;;;20.59
50206;BMP280;36098;48.390;10.856;2022-11-23T08:18:47;94854.06;;;20.64
50206;BMP280;36098;48.390;10.856;2022-11-23T08:21:15;94853.78;;;20.66
50206;BMP280;36098;48.390;10.856;2022-11-23T08:23:40;94855.50;;;20.75
50206;BMP280;36098;48.390;10.856;2022-11-23T08:26:05;94863.34;;;20.75
50206;BMP280;36098;48.390;10.856;2022-11-23T08:28:31;94854.28;;;20.68
50206;BMP280;36098;48.390;10.856;2022-11-23T08:30:56;94845.25;;;20.55
50206;BMP280;36098;48.390;10.856;2022-11-23T08:33:22;94855.63;;;20.65
50206;BMP280;36098;48.390;10.856;2022-11-23T08:35:47;94859.69;;;20.76
50206;BMP280;36098;48.390;10.856;2022-11-23T08:38:13;94853.84;;;20.79
50206;BMP280;36098;48.390;10.856;2022-11-23T08:40:38;94856.84;;;20.73
50206;BMP280;36098;48.390;10.856;2022-11-23T08:43:04;94854.84;;;20.65
50206;BMP280;36098;48.390;10.856;2022-11-23T08:45:30;94852.84;;;20.57
50206;BMP280;36098;48.390;10.856;2022-11-23T08:47:59;94850.50;;;20.55
50206;BMP280;36098;48.390;10.856;2022-11-23T08:50:25;94852.53;;;20.63
50206;BMP280;36098;48.390;10.856;2022-11-23T08:52:58;94844.50;;;20.73
50206;BMP280;36098;48.390;10.856;2022-11-23T08:55:25;94841.31;;;20.58
50206;BMP280;36098;48.390;10.856;2022-11-23T08:57:58;94846.72;;;20.66
50206;BMP280;36098;48.390;10.856;2022-11-23T09:00:24;94849.16;;;20.58
50206;BMP280;36098;48.390;10.856;2022-11-23T09:02:50;94854.25;;;20.49
50206;BMP280;36098;48.390;10.856;2022-11-23T09:05:15;94856.31;;;20.52
50206;BMP280;36098;48.390;10.856;2022-11-23T09:07:40;94856.31;;;20.52
50206;BMP280;36098;48.390;10.856;2022-11-23T09:10:06;94854.06;;;20.64
50206;BMP280;36098;48.390;10.856;2022-11-23T09:12:32;94860.22;;;20.55
50206;BMP280;36098;48.390;10.856;2022-11-23T09:14:57;94862.56;;;20.56
50206;BMP280;36098;48.390;10.856;2022-11-23T09:17:22;94863.47;;;20.47
50206;BMP280;36098;48.390;10.856;2022-11-23T09:19:48;94865.31;;;20.46
50206;BMP280;36098;48.390;10.856;2022-11-23T09:22:14;94861.13;;;20.45
50206;BMP280;36098;48.390;10.856;2022-11-23T09:24:39;94871.06;;;20.48
50206;BMP280;36098;48.390;10.856;2022-11-23T09:27:04;94860.00;;;20.51
50206;BMP280;36098;48.390;10.856;2022-11-23T09:29:30;94863.19;;;20.48
50206;BMP280;36098;48.390;10.856;2022-11-23T09:31:55;94865.25;;;20.51
50206;BMP280;36098;48.390;10.856;2022-11-23T09:34:20;94864.50;;;20.46
50206;BMP280;36098;48.390;10.856;2022-11-23T09:36:46;94861.13;;;20.45
50206;BMP280;36098;48.390;10.856;2022-11-23T09:39:11;94853.75;;;20.47
50206;BMP280;36098;48.390;10.856;2022-11-23T09:41:47;94845.00;;;20.57
50206;BMP280;36098;48.390;10.856;2022-11-23T09:48:04;94846.81;;;20.56
50206;BMP280;36098;48.390;10.856;2022-11-23T09:53:43;94841.16;;;20.49
50206;BMP280;36098;48.390;10.856;2022-11-23T09:56:21;94848.72;;;20.51
50206;BMP280;36098;48.390;10.856;2022-11-23T09:58:53;94851.13;;;20.47
50206;BMP280;36098;48.390;10.856;2022-11-23T10:01:19;94854.53;;;20.48
50206;BMP280;36098;48.390;10.856;2022-11-23T10:03:44;94834.00;;;20.55
50206;BMP280;36098;48.390;10.856;2022-11-23T10:06:17;94840.31;;;20.54
50206;BMP280;36098;48.390;10.856;2022-11-23T10:08:50;94834.28;;;20.53
50206;BMP280;36098;48.390;10.856;2022-11-23T10:11:34;94830.59;;;20.54
50206;BMP280;36098;48.390;10.856;2022-11-23T10:22:41;94817.22;;;20.56
50206;BMP280;36098;48.390;10.856;2022-11-23T10:25:19;94821.09;;;20.58
50206;BMP280;36098;48.390;10.856;2022-11-23T10:27:50;94816.56;;;20.64
50206;BMP280;36098;48.390;10.856;2022-11-23T10:30:17;94813.09;;;20.68
50206;BMP280;36098;48.390;10.856;2022-11-23T10:33:15;94810.41;;;20.73
50206;BMP280;36098;48.390;10.856;2022-11-23T10:35:41;94807.78;;;20.73
50206;BMP280;36098;48.390;10.856;2022-11-23T10:40:38;94803.47;;;20.82
50206;BMP280;36098;48.390;10.856;2022-11-23T10:43:16;94811.28;;;20.87
50206;BMP280;36098;48.390;10.856;2022-11-23T10:45:42;94801.78;;;20.91
50206;BMP280;36098;48.390;10.856;2022-11-23T10:48:08;94810.66;;;20.95
50206;BMP280;36098;48.390;10.856;2022-11-23T10:50:37;94803.69;;;21.04
50206;BMP280;36098;48.390;10.856;2022-11-23T10:55:32;94801.56;;;21.06
50206;BMP280;36098;48.390;10.856;2022-11-23T10:57:59;94796.94;;;21.17
50206;BMP280;36098;48.390;10.856;2022-11-23T11:00:27;94796.09;;;21.21
50206;BMP280;36098;48.390;10.856;2022-11-23T11:02:57;94796.09;;;21.21
50206;BMP280;36098;48.390;10.856;2022-11-23T11:05:26;94795.34;;;21.34
50206;BMP280;36098;48.390;10.856;2022-11-23T11:07:53;94788.25;;;21.35
50206;BMP280;36098;48.390;10.856;2022-11-23T11:10:40;94795.75;;;21.41
50206;BMP280;36098;48.390;10.856;2022-11-23T11:13:39;94792.94;;;21.38
50206;BMP280;36098;48.390;10.856;2022-11-23T11:16:27;94795.25;;;21.39
50206;BMP280;36098;48.390;10.856;2022-11-23T11:18:55;94785.41;;;21.31
50206;BMP280;36098;48.390;10.856;2022-11-23T11:21:31;94787.47;;;21.34
50206;BMP280;36098;48.390;10.856;2022-11-23T11:23:59;94788.91;;;21.40
50206;BMP280;36098;48.390;10.856;2022-11-23T11:26:26;94788.91;;;21.40
50206;BMP280;36098;48.390;10.856;2022-11-23T11:28:55;94791.28;;;21.41
50206;BMP280;36098;48.390;10.856;2022-11-23T11:34:18;94784.09;;;21.47
50206;BMP280;36098;48.390;10.856;2022-11-23T11:39:29;94788.16;;;21.39
50206;BMP280;36098;48.390;10.856;2022-11-23T11:41:59;94784.47;;;21.40
50206;BMP280;36098;48.390;10.856;2022-11-23T11:44:29;94779.13;;;21.45
50206;BMP280;36098;48.390;10.856;2022-11-23T11:47:03;94779.34;;;21.49
50206;BMP280;36098;48.390;10.856;2022-11-23T11:49:34;94781.75;;;21.45
50206;BMP280;36098;48.390;10.856;2022-11-23T11:52:12;94772.03;;;21.46
50206;BMP280;36098;48.390;10.856;2022-11-23T11:54:46;94778.75;;;21.52
50206;BMP280;36098;48.390;10.856;2022-11-23T11:57:19;94783.88;;;21.43
50206;BMP280;36098;48.390;10.856;2022-11-23T11:59:52;94773.81;;;21.50
50206;BMP280;36098;48.390;10.856;2022-11-23T12:02:24;94776.97;;;21.47
50206;BMP280;36098;48.390;10.856;2022-11-23T12:08:07;94772.16;;;21.54
50206;BMP280;36098;48.390;10.856;2022-11-23T12:11:01;94767.03;;;21.63
50206;BMP280;36098;48.390;10.856;2022-11-23T12:13:41;94768.50;;;21.69
50206;BMP280;36098;48.390;10.856;2022-11-23T12:18:55;94763.16;;;21.74
50206;BMP280;36098;48.390;10.856;2022-11-23T12:27:16;94756.38;;;22.00
50206;BMP280;36098;48.390;10.856;2022-11-23T12:46:26;94749.25;;;22.41
50206;BMP280;36098;48.390;10.856;2022-11-23T12:49:43;94738.84;;;22.58
50206;BMP280;36098;48.390;10.856;2022-11-23T12:55:06;94741.59;;;22.53
50206;BMP280;36098;48.390;10.856;2022-11-23T12:57:41;94731.22;;;22.70
50206;BMP280;36098;48.390;10.856;2022-11-23T13:00:18;94738.75;;;22.63
50206;BMP280;36098;48.390;10.856;2022-11-23T13:05:59;94747.56;;;22.45
50206;BMP280;36098;48.390;10.856;2022-11-23T13:13:50;94735.38;;;22.49
50206;BMP280;36098;48.390;10.856;2022-11-23T13:16:31;94738.00;;;22.49
50206;BMP280;36098;48.390;10.856;2022-11-23T13:21:51;94723.75;;;22.85
50206;BMP280;36098;48.390;10.856;2022-11-23T13:40:38;94718.53;;;22.72
50206;BMP280;36098;48.390;10.856;2022-11-23T13:43:14;94707.53;;;22.70
50206;BMP280;36098;48.390;10.856;2022-11-23T13:45:40;94712.22;;;22.73
50206;BMP280;36098;48.390;10.856;2022-11-23T13:48:13;94715.69;;;22.60
50206;BMP280;36098;48.390;10.856;2022-11-23T13:56:14;94715.56;;;23.09
50206;BMP280;36098;48.390;10.856;2022-11-23T13:58:48;94716.94;;;23.06
50206;BMP280;36098;48.390;10.856;2022-11-23T14:04:19;94712.69;;;22.75
50206;BMP280;36098;48.390;10.856;2022-11-23T14:06:48;94712.31;;;22.68
50206;BMP280;36098;48.390;10.856;2022-11-23T14:09:35;94720.88;;;22.38
50206;BMP280;36098;48.390;10.856;2022-11-23T14:12:05;94718.56;;;22.23
50206;BMP280;36098;48.390;10.856;2022-11-23T14:15:12;94715.84;;;22.14
50206;BMP280;36098;48.390;10.856;2022-11-23T14:20:18;94718.44;;;22.41
50206;BMP280;36098;48.390;10.856;2022-11-23T14:25:19;94708.34;;;22.57
50206;BMP280;36098;48.390;10.856;2022-11-23T14:28:02;94716.75;;;22.59
50206;BMP280;36098;48.390;10.856;2022-11-23T14:33:42;94716.41;;;22.38
50206;BMP280;36098;48.390;10.856;2022-11-23T14:36:33;94724.06;;;22.35
50206;BMP280;36098;48.390;10.856;2022-11-23T14:42:09;94723.09;;;22.44
50206;BMP280;36098;48.390;10.856;2022-11-23T14:44:35;94713.19;;;22.28
50206;BMP280;36098;48.390;10.856;2022-11-23T14:47:04;94720.59;;;22.26
50206;BMP280;36098;48.390;10.856;2022-11-23T14:49:30;94730.63;;;22.24
50206;BMP280;36098;48.390;10.856;2022-11-23T14:51:56;94723.34;;;22.21
50206;BMP280;36098;48.390;10.856;2022-11-23T14:54:23;94722.56;;;22.07
50206;BMP280;36098;48.390;10.856;2022-11-23T14:56:51;94728.69;;;22.16
50206;BMP280;36098;48.390;10.856;2022-11-23T14:59:23;94728.69;;;22.16
50206;BMP280;36098;48.390;10.856;2022-11-23T15:01:56;94725.38;;;22.24
50206;BMP280;36098;48.390;10.856;2022-11-23T15:04:30;94715.22;;;22.31
50206;BMP280;36098;48.390;10.856;2022-11-23T15:07:23;94713.88;;;22.33
50206;BMP280;36098;48.390;10.856;2022-11-23T15:09:53;94714.94;;;22.32
50206;BMP280;36098;48.390;10.856;2022-11-23T15:12:23;94710.56;;;22.28
50206;BMP280;36098;48.390;10.856;2022-11-23T15:14:49;94707.44;;;22.26
50206;BMP280;36098;48.390;10.856;2022-11-23T15:17:19;94701.72;;;22.24
50206;BMP280;36098;48.390;10.856;2022-11-23T15:19:53;94703.38;;;22.20
50206;BMP280;36098;48.390;10.856;2022-11-23T15:22:18;94696.53;;;22.19
50206;BMP280;36098;48.390;10.856;2022-11-23T15:24:45;94702.03;;;22.09
50206;BMP280;36098;48.390;10.856;2022-11-23T15:27:14;94704.16;;;22.07
50206;BMP280;36098;48.390;10.856;2022-11-23T15:29:50;94702.03;;;22.09
50206;BMP280;36098;48.390;10.856;2022-11-23T15:32:21;94700.94;;;22.10
50206;BMP280;36098;48.390;10.856;2022-11-23T15:34:48;94704.16;;;22.07
50206;BMP280;36098;48.390;10.856;2022-11-23T15:37:13;94701.06;;;22.05
50206;BMP280;36098;48.390;10.856;2022-11-23T15:39:39;94704.75;;;22.04
50206;BMP280;36098;48.390;10.856;2022-11-23T15:42:05;94712.66;;;22.04
50206;BMP280;36098;48.390;10.856;2022-11-23T15:44:31;94707.66;;;22.02
50206;BMP280;36098;48.390;10.856;2022-11-23T15:47:02;94707.78;;;21.97
50206;BMP280;36098;48.390;10.856;2022-11-23T15:49:31;94710.22;;;21.94
50206;BMP280;36098;48.390;10.856;2022-11-23T15:52:00;94702.44;;;21.89